sensor_id;sensor_type;location;lat;lon;timestamp;P1;durP1;ratioP1;P2;durP2;ratioP2
3704;SDS011;1868;48.918;9.438;2024-01-27T00:00:37;8.20;;;4.73;;
3704;SDS011;1868;48.918;9.438;2024-01-27T00:03:08;6.80;;;4.87;;
3704;SDS011;1868;48.918;9.438;2024-01-27T00:05:37;7.53;;;5.47;;
3704;SDS011;1868;48.918;9.438;2024-01-27T00:08:07;11.70;;;6.50;;
3704;SDS011;1868;48.918;9.438;2024-01-27T00:10:35;8.50;;;5.27;;
3704;SDS011;1868;48.918;9.438;2024-01-27T00:13:05;8.00;;;5.23;;
3704;SDS011;1868;48.918;9.438;2024-01-27T00:15:35;8.70;;;5.47;;
3704;SDS011;1868;48.918;9.438;2024-01-27T00:18:04;8.80;;;5.70;;
3704;SDS011;1868;48.918;9.438;2024-01-27T00:20:38;11.07;;;7.30;;
3704;SDS011;1868;48.918;9.438;2024-01-27T00:23:14;14.17;;;7.70;;
3704;SDS011;1868;48.918;9.438;2024-01-27T00:25:43;8.10;;;5.50;;
3704;SDS011;1868;48.918;9.438;2024-01-27T00:28:11;8.70;;;6.40;;
3704;SDS011;1868;48.918;9.438;2024-01-27T00:30:41;9.97;;;7.00;;
3704;SDS011;1868;48.918;9.438;2024-01-27T00:33:09;7.50;;;5.80;;
3704;SDS011;1868;48.918;9.438;2024-01-27T00:35:41;10.93;;;6.10;;
3704;SDS011;1868;48.918;9.438;2024-01-27T00:38:10;8.07;;;5.70;;
3704;SDS011;1868;48.918;9.438;2024-01-27T00:40:39;7.90;;;5.67;;
3704;SDS011;1868;48.918;9.438;2024-01-27T00:43:09;10.57;;;5.77;;
3704;SDS011;1868;48.918;9.438;2024-01-27T00:45:39;13.23;;;6.47;;
3704;SDS011;1868;48.918;9.438;2024-01-27T00:48:09;8.60;;;6.03;;
3704;SDS011;1868;48.918;9.438;2024-01-27T00:50:41;6.70;;;5.67;;
3704;SDS011;1868;48.918;9.438;2024-01-27T00:53:09;8.17;;;5.23;;
3704;SDS011;1868;48.918;9.438;2024-01-27T00:55:39;6.60;;;5.27;;
3704;SDS011;1868;48.918;9.438;2024-01-27T00:58:08;8.60;;;6.00;;
3704;SDS011;1868;48.918;9.438;2024-01-27T01:00:45;8.37;;;5.70;;
3704;SDS011;1868;48.918;9.438;2024-01-27T01:03:13;7.73;;;5.60;;
3704;SDS011;1868;48.918;9.438;2024-01-27T01:05:42;7.97;;;5.40;;
3704;SDS011;1868;48.918;9.438;2024-01-27T01:08:11;6.90;;;5.43;;
3704;SDS011;1868;48.918;9.438;2024-01-27T01:10:39;6.93;;;4.80;;
3704;SDS011;1868;48.918;9.438;2024-01-27T01:13:08;7.53;;;4.73;;
3704;SDS011;1868;48.918;9.438;2024-01-27T01:15:37;8.13;;;5.87;;
3704;SDS011;1868;48.918;9.438;2024-01-27T01:18:06;5.13;;;4.63;;
3704;SDS011;1868;48.918;9.438;2024-01-27T01:20:35;10.40;;;5.10;;
3704;SDS011;1868;48.918;9.438;2024-01-27T01:23:05;7.40;;;5.40;;
3704;SDS011;1868;48.918;9.438;2024-01-27T01:25:34;5.87;;;5.30;;
3704;SDS011;1868;48.918;9.438;2024-01-27T01:28:03;7.53;;;5.07;;
3704;SDS011;1868;48.918;9.438;2024-01-27T01:30:32;3.97;;;3.63;;
3704;SDS011;1868;48.918;9.438;2024-01-27T01:33:02;6.73;;;4.17;;
3704;SDS011;1868;48.918;9.438;2024-01-27T01:35:34;5.60;;;5.00;;
3704;SDS011;1868;48.918;9.438;2024-01-27T01:38:07;9.70;;;4.60;;
3704;SDS011;1868;48.918;9.438;2024-01-27T01:40:36;10.23;;;5.47;;
3704;SDS011;1868;48.918;9.438;2024-01-27T01:43:09;20.23;;;5.80;;
3704;SDS011;1868;48.918;9.438;2024-01-27T01:45:39;8.03;;;4.90;;
3704;SDS011;1868;48.918;9.438;2024-01-27T01:48:10;11.10;;;5.70;;
3704;SDS011;1868;48.918;9.438;2024-01-27T01:50:39;5.70;;;5.10;;
3704;SDS011;1868;48.918;9.438;2024-01-27T01:53:10;5.00;;;4.50;;
3704;SDS011;1868;48.918;9.438;2024-01-27T01:55:40;4.30;;;4.00;;
3704;SDS011;1868;48.918;9.438;2024-01-27T01:58:09;6.17;;;4.07;;
3704;SDS011;1868;48.918;9.438;2024-01-27T02:00:38;4.30;;;3.80;;
3704;SDS011;1868;48.918;9.438;2024-01-27T02:03:09;6.77;;;3.90;;
3704;SDS011;1868;48.918;9.438;2024-01-27T02:05:39;5.87;;;4.20;;
3704;SDS011;1868;48.918;9.438;2024-01-27T02:08:10;4.20;;;3.63;;
3704;SDS011;1868;48.918;9.438;2024-01-27T02:10:39;6.63;;;4.00;;
3704;SDS011;1868;48.918;9.438;2024-01-27T02:13:15;3.73;;;3.33;;
3704;SDS011;1868;48.918;9.438;2024-01-27T02:15:46;3.93;;;3.17;;
3704;SDS011;1868;48.918;9.438;2024-01-27T02:18:18;4.43;;;3.33;;
3704;SDS011;1868;48.918;9.438;2024-01-27T02:20:50;7.03;;;6.10;;
3704;SDS011;1868;48.918;9.438;2024-01-27T02:23:23;9.93;;;6.90;;
3704;SDS011;1868;48.918;9.438;2024-01-27T02:25:53;6.70;;;5.63;;
3704;SDS011;1868;48.918;9.438;2024-01-27T02:28:24;5.90;;;5.30;;
3704;SDS011;1868;48.918;9.438;2024-01-27T02:30:54;6.73;;;4.57;;
3704;SDS011;1868;48.918;9.438;2024-01-27T02:33:25;4.30;;;4.00;;
3704;SDS011;1868;48.918;9.438;2024-01-27T02:35:56;5.20;;;3.90;;
3704;SDS011;1868;48.918;9.438;2024-01-27T02:38:25;4.93;;;4.43;;
3704;SDS011;1868;48.918;9.438;2024-01-27T02:40:56;6.80;;;5.20;;
3704;SDS011;1868;48.918;9.438;2024-01-27T02:43:24;5.83;;;5.30;;
3704;SDS011;1868;48.918;9.438;2024-01-27T02:45:53;5.17;;;4.67;;
3704;SDS011;1868;48.918;9.438;2024-01-27T02:48:22;4.83;;;4.20;;
3704;SDS011;1868;48.918;9.438;2024-01-27T02:50:50;4.97;;;4.13;;
3704;SDS011;1868;48.918;9.438;2024-01-27T02:53:20;4.73;;;3.70;;
3704;SDS011;1868;48.918;9.438;2024-01-27T02:55:50;4.23;;;3.80;;
3704;SDS011;1868;48.918;9.438;2024-01-27T02:58:21;6.80;;;3.80;;
3704;SDS011;1868;48.918;9.438;2024-01-27T03:00:53;4.43;;;3.60;;
3704;SDS011;1868;48.918;9.438;2024-01-27T03:03:22;8.83;;;4.20;;
3704;SDS011;1868;48.918;9.438;2024-01-27T03:05:51;7.30;;;5.13;;
3704;SDS011;1868;48.918;9.438;2024-01-27T03:08:21;9.27;;;4.00;;
3704;SDS011;1868;48.918;9.438;2024-01-27T03:10:51;5.70;;;4.40;;
3704;SDS011;1868;48.918;9.438;2024-01-27T03:13:22;4.20;;;3.80;;
3704;SDS011;1868;48.918;9.438;2024-01-27T03:15:51;4.00;;;3.40;;
3704;SDS011;1868;48.918;9.438;2024-01-27T03:18:21;5.10;;;3.53;;
3704;SDS011;1868;48.918;9.438;2024-01-27T03:20:51;4.60;;;3.93;;
3704;SDS011;1868;48.918;9.438;2024-01-27T03:23:24;4.90;;;3.80;;
3704;SDS011;1868;48.918;9.438;2024-01-27T03:25:54;4.67;;;4.20;;
3704;SDS011;1868;48.918;9.438;2024-01-27T03:28:26;9.60;;;3.50;;
3704;SDS011;1868;48.918;9.438;2024-01-27T03:30:54;8.57;;;4.43;;
3704;SDS011;1868;48.918;9.438;2024-01-27T03:33:23;9.57;;;6.13;;
3704;SDS011;1868;48.918;9.438;2024-01-27T03:35:52;10.30;;;5.67;;
3704;SDS011;1868;48.918;9.438;2024-01-27T03:38:23;6.10;;;3.83;;
3704;SDS011;1868;48.918;9.438;2024-01-27T03:40:52;7.07;;;4.20;;
3704;SDS011;1868;48.918;9.438;2024-01-27T03:43:21;8.73;;;3.90;;
3704;SDS011;1868;48.918;9.438;2024-01-27T03:45:51;9.40;;;5.10;;
3704;SDS011;1868;48.918;9.438;2024-01-27T03:48:20;4.80;;;4.37;;
3704;SDS011;1868;48.918;9.438;2024-01-27T03:50:49;6.00;;;4.43;;
3704;SDS011;1868;48.918;9.438;2024-01-27T03:53:18;5.50;;;4.37;;
3704;SDS011;1868;48.918;9.438;2024-01-27T03:55:47;3.97;;;3.60;;
3704;SDS011;1868;48.918;9.438;2024-01-27T03:58:16;7.60;;;3.60;;
3704;SDS011;1868;48.918;9.438;2024-01-27T04:00:45;8.10;;;4.40;;
3704;SDS011;1868;48.918;9.438;2024-01-27T04:03:19;5.93;;;4.10;;
3704;SDS011;1868;48.918;9.438;2024-01-27T04:05:48;5.67;;;3.93;;
3704;SDS011;1868;48.918;9.438;2024-01-27T04:08:18;6.33;;;4.70;;
3704;SDS011;1868;48.918;9.438;2024-01-27T04:10:48;7.30;;;4.57;;
3704;SDS011;1868;48.918;9.438;2024-01-27T04:13:17;7.40;;;4.40;;
3704;SDS011;1868;48.918;9.438;2024-01-27T04:15:46;7.03;;;4.63;;
3704;SDS011;1868;48.918;9.438;2024-01-27T04:18:14;6.80;;;3.73;;
3704;SDS011;1868;48.918;9.438;2024-01-27T04:20:48;8.03;;;4.27;;
3704;SDS011;1868;48.918;9.438;2024-01-27T04:23:17;5.93;;;4.43;;
3704;SDS011;1868;48.918;9.438;2024-01-27T04:25:48;6.67;;;4.57;;
3704;SDS011;1868;48.918;9.438;2024-01-27T04:28:16;5.43;;;4.10;;
3704;SDS011;1868;48.918;9.438;2024-01-27T04:30:46;5.40;;;4.17;;
3704;SDS011;1868;48.918;9.438;2024-01-27T04:33:16;11.20;;;5.00;;
3704;SDS011;1868;48.918;9.438;2024-01-27T04:35:49;5.57;;;4.13;;
3704;SDS011;1868;48.918;9.438;2024-01-27T04:38:18;4.90;;;4.10;;
3704;SDS011;1868;48.918;9.438;2024-01-27T04:40:47;6.13;;;3.90;;
3704;SDS011;1868;48.918;9.438;2024-01-27T04:43:19;7.20;;;4.60;;
3704;SDS011;1868;48.918;9.438;2024-01-27T04:45:48;6.27;;;4.83;;
3704;SDS011;1868;48.918;9.438;2024-01-27T04:48:18;5.73;;;4.67;;
3704;SDS011;1868;48.918;9.438;2024-01-27T04:50:51;7.47;;;4.07;;
3704;SDS011;1868;48.918;9.438;2024-01-27T04:53:23;13.33;;;4.77;;
3704;SDS011;1868;48.918;9.438;2024-01-27T04:55:52;9.00;;;4.27;;
3704;SDS011;1868;48.918;9.438;2024-01-27T04:58:23;5.10;;;4.03;;
3704;SDS011;1868;48.918;9.438;2024-01-27T05:00:52;6.80;;;4.20;;
3704;SDS011;1868;48.918;9.438;2024-01-27T05:03:22;5.83;;;4.23;;
3704;SDS011;1868;48.918;9.438;2024-01-27T05:05:53;5.73;;;3.70;;
3704;SDS011;1868;48.918;9.438;2024-01-27T05:08:23;6.47;;;3.70;;
3704;SDS011;1868;48.918;9.438;2024-01-27T05:10:52;5.13;;;3.47;;
3704;SDS011;1868;48.918;9.438;2024-01-27T05:13:24;7.97;;;3.90;;
3704;SDS011;1868;48.918;9.438;2024-01-27T05:15:54;7.07;;;4.97;;
3704;SDS011;1868;48.918;9.438;2024-01-27T05:18:24;4.07;;;3.67;;
3704;SDS011;1868;48.918;9.438;2024-01-27T05:20:56;4.40;;;3.33;;
3704;SDS011;1868;48.918;9.438;2024-01-27T05:23:26;7.70;;;3.20;;
3704;SDS011;1868;48.918;9.438;2024-01-27T05:25:56;3.70;;;3.40;;
3704;SDS011;1868;48.918;9.438;2024-01-27T05:28:26;3.30;;;3.10;;
3704;SDS011;1868;48.918;9.438;2024-01-27T05:30:56;3.10;;;2.80;;
3704;SDS011;1868;48.918;9.438;2024-01-27T05:33:25;4.73;;;3.40;;
3704;SDS011;1868;48.918;9.438;2024-01-27T05:35:55;8.30;;;3.47;;
3704;SDS011;1868;48.918;9.438;2024-01-27T05:38:25;8.33;;;2.93;;
3704;SDS011;1868;48.918;9.438;2024-01-27T05:40:56;3.03;;;2.83;;
3704;SDS011;1868;48.918;9.438;2024-01-27T05:43:26;3.03;;;2.77;;
3704;SDS011;1868;48.918;9.438;2024-01-27T05:45:55;3.60;;;2.80;;
3704;SDS011;1868;48.918;9.438;2024-01-27T05:48:26;5.20;;;4.00;;
3704;SDS011;1868;48.918;9.438;2024-01-27T05:50:58;6.03;;;3.80;;
3704;SDS011;1868;48.918;9.438;2024-01-27T05:53:29;5.13;;;4.23;;
3704;SDS011;1868;48.918;9.438;2024-01-27T05:55:58;8.17;;;4.80;;
3704;SDS011;1868;48.918;9.438;2024-01-27T05:58:27;5.40;;;3.70;;
3704;SDS011;1868;48.918;9.438;2024-01-27T06:00:56;5.80;;;3.70;;
3704;SDS011;1868;48.918;9.438;2024-01-27T06:03:26;4.13;;;3.50;;
3704;SDS011;1868;48.918;9.438;2024-01-27T06:05:55;3.40;;;3.17;;
3704;SDS011;1868;48.918;9.438;2024-01-27T06:08:26;3.10;;;2.80;;
3704;SDS011;1868;48.918;9.438;2024-01-27T06:10:55;4.07;;;2.50;;
3704;SDS011;1868;48.918;9.438;2024-01-27T06:13:26;4.90;;;3.23;;
3704;SDS011;1868;48.918;9.438;2024-01-27T06:15:55;5.03;;;3.37;;
3704;SDS011;1868;48.918;9.438;2024-01-27T06:18:23;5.40;;;3.70;;
3704;SDS011;1868;48.918;9.438;2024-01-27T06:20:52;4.40;;;3.90;;
3704;SDS011;1868;48.918;9.438;2024-01-27T06:23:23;5.90;;;4.03;;
3704;SDS011;1868;48.918;9.438;2024-01-27T06:25:52;5.83;;;4.30;;
3704;SDS011;1868;48.918;9.438;2024-01-27T06:28:23;3.83;;;3.43;;
3704;SDS011;1868;48.918;9.438;2024-01-27T06:30:52;7.83;;;4.50;;
3704;SDS011;1868;48.918;9.438;2024-01-27T06:33:22;5.10;;;4.30;;
3704;SDS011;1868;48.918;9.438;2024-01-27T06:35:51;8.67;;;6.23;;
3704;SDS011;1868;48.918;9.438;2024-01-27T06:38:20;10.53;;;7.73;;
3704;SDS011;1868;48.918;9.438;2024-01-27T06:40:50;12.13;;;8.93;;
3704;SDS011;1868;48.918;9.438;2024-01-27T06:43:20;10.50;;;7.80;;
3704;SDS011;1868;48.918;9.438;2024-01-27T06:45:49;12.03;;;7.43;;
3704;SDS011;1868;48.918;9.438;2024-01-27T06:48:18;8.93;;;5.40;;
3704;SDS011;1868;48.918;9.438;2024-01-27T06:50:47;9.23;;;4.33;;
3704;SDS011;1868;48.918;9.438;2024-01-27T06:53:18;3.03;;;2.70;;
3704;SDS011;1868;48.918;9.438;2024-01-27T06:55:47;2.50;;;2.20;;
3704;SDS011;1868;48.918;9.438;2024-01-27T06:58:17;3.20;;;2.87;;
3704;SDS011;1868;48.918;9.438;2024-01-27T07:00:46;3.93;;;3.53;;
3704;SDS011;1868;48.918;9.438;2024-01-27T07:03:15;3.30;;;2.77;;
3704;SDS011;1868;48.918;9.438;2024-01-27T07:05:45;2.83;;;2.63;;
3704;SDS011;1868;48.918;9.438;2024-01-27T07:08:13;3.23;;;2.80;;
3704;SDS011;1868;48.918;9.438;2024-01-27T07:10:43;4.90;;;2.90;;
3704;SDS011;1868;48.918;9.438;2024-01-27T07:13:13;4.37;;;3.90;;
3704;SDS011;1868;48.918;9.438;2024-01-27T07:15:42;6.97;;;4.13;;
3704;SDS011;1868;48.918;9.438;2024-01-27T07:18:11;7.23;;;5.97;;
3704;SDS011;1868;48.918;9.438;2024-01-27T07:20:42;5.50;;;4.67;;
3704;SDS011;1868;48.918;9.438;2024-01-27T07:23:11;4.83;;;4.13;;
3704;SDS011;1868;48.918;9.438;2024-01-27T07:25:40;5.73;;;4.67;;
3704;SDS011;1868;48.918;9.438;2024-01-27T07:28:09;6.57;;;4.97;;
3704;SDS011;1868;48.918;9.438;2024-01-27T07:30:40;6.47;;;5.00;;
3704;SDS011;1868;48.918;9.438;2024-01-27T07:33:09;7.23;;;4.63;;
3704;SDS011;1868;48.918;9.438;2024-01-27T07:35:38;6.87;;;4.60;;
3704;SDS011;1868;48.918;9.438;2024-01-27T07:38:08;6.67;;;4.70;;
3704;SDS011;1868;48.918;9.438;2024-01-27T07:40:38;5.90;;;4.70;;
3704;SDS011;1868;48.918;9.438;2024-01-27T07:43:10;8.33;;;4.50;;
3704;SDS011;1868;48.918;9.438;2024-01-27T07:45:42;6.90;;;5.57;;
3704;SDS011;1868;48.918;9.438;2024-01-27T07:48:11;7.63;;;4.70;;
3704;SDS011;1868;48.918;9.438;2024-01-27T07:50:40;8.43;;;4.93;;
3704;SDS011;1868;48.918;9.438;2024-01-27T07:53:12;6.13;;;4.50;;
3704;SDS011;1868;48.918;9.438;2024-01-27T07:55:40;6.50;;;4.80;;
3704;SDS011;1868;48.918;9.438;2024-01-27T07:58:09;5.90;;;4.63;;
3704;SDS011;1868;48.918;9.438;2024-01-27T08:00:37;5.80;;;3.83;;
3704;SDS011;1868;48.918;9.438;2024-01-27T08:03:08;6.67;;;4.30;;
3704;SDS011;1868;48.918;9.438;2024-01-27T08:05:37;9.73;;;5.10;;
3704;SDS011;1868;48.918;9.438;2024-01-27T08:08:05;51.47;;;33.00;;
3704;SDS011;1868;48.918;9.438;2024-01-27T08:10:34;23.37;;;15.27;;
3704;SDS011;1868;48.918;9.438;2024-01-27T08:13:03;8.07;;;6.57;;
3704;SDS011;1868;48.918;9.438;2024-01-27T08:15:32;9.37;;;6.07;;
3704;SDS011;1868;48.918;9.438;2024-01-27T08:18:00;9.37;;;6.33;;
3704;SDS011;1868;48.918;9.438;2024-01-27T08:20:30;12.93;;;9.40;;
3704;SDS011;1868;48.918;9.438;2024-01-27T08:22:59;25.10;;;14.90;;
3704;SDS011;1868;48.918;9.438;2024-01-27T08:25:31;29.80;;;15.83;;
3704;SDS011;1868;48.918;9.438;2024-01-27T08:28:00;17.63;;;10.77;;
3704;SDS011;1868;48.918;9.438;2024-01-27T08:30:29;6.37;;;5.53;;
3704;SDS011;1868;48.918;9.438;2024-01-27T08:32:59;7.70;;;3.87;;
3704;SDS011;1868;48.918;9.438;2024-01-27T08:35:28;4.03;;;3.67;;
3704;SDS011;1868;48.918;9.438;2024-01-27T08:37:59;6.80;;;4.50;;
3704;SDS011;1868;48.918;9.438;2024-01-27T08:40:30;4.33;;;3.93;;
3704;SDS011;1868;48.918;9.438;2024-01-27T08:42:59;4.07;;;3.33;;
3704;SDS011;1868;48.918;9.438;2024-01-27T08:45:32;4.00;;;3.57;;
3704;SDS011;1868;48.918;9.438;2024-01-27T08:48:00;5.57;;;3.57;;
3704;SDS011;1868;48.918;9.438;2024-01-27T08:50:31;2.83;;;2.63;;
3704;SDS011;1868;48.918;9.438;2024-01-27T08:52:59;3.50;;;3.27;;
3704;SDS011;1868;48.918;9.438;2024-01-27T08:55:28;4.40;;;3.30;;
3704;SDS011;1868;48.918;9.438;2024-01-27T08:57:56;3.60;;;3.30;;
3704;SDS011;1868;48.918;9.438;2024-01-27T09:00:25;6.07;;;4.03;;
3704;SDS011;1868;48.918;9.438;2024-01-27T09:02:54;10.10;;;5.67;;
3704;SDS011;1868;48.918;9.438;2024-01-27T09:05:23;6.43;;;4.80;;
3704;SDS011;1868;48.918;9.438;2024-01-27T09:07:56;7.03;;;4.90;;
3704;SDS011;1868;48.918;9.438;2024-01-27T09:10:24;5.87;;;4.33;;
3704;SDS011;1868;48.918;9.438;2024-01-27T09:12:55;4.47;;;4.07;;
3704;SDS011;1868;48.918;9.438;2024-01-27T09:15:23;8.00;;;4.53;;
3704;SDS011;1868;48.918;9.438;2024-01-27T09:17:52;4.60;;;3.87;;
3704;SDS011;1868;48.918;9.438;2024-01-27T09:20:22;5.97;;;3.97;;
3704;SDS011;1868;48.918;9.438;2024-01-27T09:22:50;4.87;;;3.80;;
3704;SDS011;1868;48.918;9.438;2024-01-27T09:25:20;5.90;;;4.20;;
3704;SDS011;1868;48.918;9.438;2024-01-27T09:27:49;11.70;;;7.63;;
3704;SDS011;1868;48.918;9.438;2024-01-27T09:30:17;5.73;;;4.07;;
3704;SDS011;1868;48.918;9.438;2024-01-27T09:32:46;6.20;;;4.30;;
3704;SDS011;1868;48.918;9.438;2024-01-27T09:35:16;8.23;;;4.80;;
3704;SDS011;1868;48.918;9.438;2024-01-27T09:37:46;6.27;;;3.87;;
3704;SDS011;1868;48.918;9.438;2024-01-27T09:40:15;6.63;;;4.00;;
3704;SDS011;1868;48.918;9.438;2024-01-27T09:42:50;10.73;;;4.30;;
3704;SDS011;1868;48.918;9.438;2024-01-27T09:45:20;6.20;;;4.53;;
3704;SDS011;1868;48.918;9.438;2024-01-27T09:47:51;9.87;;;5.90;;
3704;SDS011;1868;48.918;9.438;2024-01-27T09:50:27;9.27;;;6.10;;
3704;SDS011;1868;48.918;9.438;2024-01-27T09:52:56;6.00;;;5.13;;
3704;SDS011;1868;48.918;9.438;2024-01-27T09:55:27;6.90;;;4.93;;
3704;SDS011;1868;48.918;9.438;2024-01-27T09:57:59;10.63;;;5.17;;
3704;SDS011;1868;48.918;9.438;2024-01-27T10:00:29;9.33;;;5.63;;
3704;SDS011;1868;48.918;9.438;2024-01-27T10:02:58;9.13;;;4.50;;
3704;SDS011;1868;48.918;9.438;2024-01-27T10:05:28;11.33;;;4.67;;
3704;SDS011;1868;48.918;9.438;2024-01-27T10:07:59;6.77;;;3.93;;
3704;SDS011;1868;48.918;9.438;2024-01-27T10:10:30;7.70;;;4.57;;
3704;SDS011;1868;48.918;9.438;2024-01-27T10:13:01;4.70;;;3.73;;
3704;SDS011;1868;48.918;9.438;2024-01-27T10:15:33;6.37;;;3.87;;
3704;SDS011;1868;48.918;9.438;2024-01-27T10:18:06;6.57;;;4.07;;
3704;SDS011;1868;48.918;9.438;2024-01-27T10:20:40;5.07;;;4.13;;
3704;SDS011;1868;48.918;9.438;2024-01-27T10:23:11;8.77;;;4.67;;
3704;SDS011;1868;48.918;9.438;2024-01-27T10:25:43;6.33;;;4.30;;
3704;SDS011;1868;48.918;9.438;2024-01-27T10:28:14;5.47;;;3.50;;
3704;SDS011;1868;48.918;9.438;2024-01-27T10:30:44;6.97;;;3.40;;
3704;SDS011;1868;48.918;9.438;2024-01-27T10:33:15;4.07;;;2.87;;
3704;SDS011;1868;48.918;9.438;2024-01-27T10:35:44;4.63;;;2.90;;
3704;SDS011;1868;48.918;9.438;2024-01-27T10:38:13;6.80;;;3.60;;
3704;SDS011;1868;48.918;9.438;2024-01-27T10:40:42;5.93;;;2.50;;
3704;SDS011;1868;48.918;9.438;2024-01-27T10:43:11;6.30;;;3.10;;
3704;SDS011;1868;48.918;9.438;2024-01-27T10:45:44;6.20;;;2.10;;
3704;SDS011;1868;48.918;9.438;2024-01-27T10:48:14;3.33;;;2.07;;
3704;SDS011;1868;48.918;9.438;2024-01-27T10:50:43;7.80;;;2.53;;
3704;SDS011;1868;48.918;9.438;2024-01-27T10:53:17;6.47;;;2.83;;
3704;SDS011;1868;48.918;9.438;2024-01-27T10:55:53;6.17;;;2.60;;
3704;SDS011;1868;48.918;9.438;2024-01-27T10:58:27;6.23;;;2.33;;
3704;SDS011;1868;48.918;9.438;2024-01-27T11:01:00;3.63;;;2.30;;
3704;SDS011;1868;48.918;9.438;2024-01-27T11:03:31;4.30;;;1.97;;
3704;SDS011;1868;48.918;9.438;2024-01-27T11:06:02;3.67;;;2.20;;
3704;SDS011;1868;48.918;9.438;2024-01-27T11:08:33;5.50;;;2.73;;
3704;SDS011;1868;48.918;9.438;2024-01-27T11:11:06;5.40;;;2.30;;
3704;SDS011;1868;48.918;9.438;2024-01-27T11:13:36;6.37;;;2.73;;
3704;SDS011;1868;48.918;9.438;2024-01-27T11:16:05;6.83;;;2.47;;
3704;SDS011;1868;48.918;9.438;2024-01-27T11:18:43;4.30;;;2.10;;
3704;SDS011;1868;48.918;9.438;2024-01-27T11:21:14;6.70;;;2.33;;
3704;SDS011;1868;48.918;9.438;2024-01-27T11:23:46;7.53;;;2.60;;
3704;SDS011;1868;48.918;9.438;2024-01-27T11:26:17;6.70;;;2.40;;
3704;SDS011;1868;48.918;9.438;2024-01-27T11:28:51;7.57;;;3.13;;
3704;SDS011;1868;48.918;9.438;2024-01-27T11:31:20;6.13;;;2.30;;
3704;SDS011;1868;48.918;9.438;2024-01-27T11:33:50;5.73;;;2.33;;
3704;SDS011;1868;48.918;9.438;2024-01-27T11:36:24;9.17;;;2.97;;
3704;SDS011;1868;48.918;9.438;2024-01-27T11:38:54;5.80;;;2.40;;
3704;SDS011;1868;48.918;9.438;2024-01-27T11:41:26;7.50;;;2.63;;
3704;SDS011;1868;48.918;9.438;2024-01-27T11:43:58;5.30;;;2.60;;
3704;SDS011;1868;48.918;9.438;2024-01-27T11:46:28;4.17;;;2.43;;
3704;SDS011;1868;48.918;9.438;2024-01-27T11:48:56;12.60;;;3.43;;
3704;SDS011;1868;48.918;9.438;2024-01-27T11:51:25;6.37;;;2.60;;
3704;SDS011;1868;48.918;9.438;2024-01-27T11:53:56;6.60;;;2.80;;
3704;SDS011;1868;48.918;9.438;2024-01-27T11:56:26;6.87;;;3.10;;
3704;SDS011;1868;48.918;9.438;2024-01-27T11:58:55;7.10;;;3.00;;
3704;SDS011;1868;48.918;9.438;2024-01-27T12:01:26;5.93;;;2.73;;
3704;SDS011;1868;48.918;9.438;2024-01-27T12:03:55;6.40;;;3.10;;
3704;SDS011;1868;48.918;9.438;2024-01-27T12:06:24;4.00;;;2.37;;
3704;SDS011;1868;48.918;9.438;2024-01-27T12:08:54;8.40;;;2.83;;
3704;SDS011;1868;48.918;9.438;2024-01-27T12:11:24;7.70;;;3.37;;
3704;SDS011;1868;48.918;9.438;2024-01-27T12:13:53;5.57;;;3.20;;
3704;SDS011;1868;48.918;9.438;2024-01-27T12:16:26;6.63;;;2.80;;
3704;SDS011;1868;48.918;9.438;2024-01-27T12:18:56;5.80;;;2.67;;
3704;SDS011;1868;48.918;9.438;2024-01-27T12:21:26;4.50;;;2.70;;
3704;SDS011;1868;48.918;9.438;2024-01-27T12:23:57;4.10;;;2.50;;
3704;SDS011;1868;48.918;9.438;2024-01-27T12:26:27;9.07;;;5.47;;
3704;SDS011;1868;48.918;9.438;2024-01-27T12:28:57;6.53;;;2.70;;
3704;SDS011;1868;48.918;9.438;2024-01-27T12:31:29;6.40;;;2.80;;
3704;SDS011;1868;48.918;9.438;2024-01-27T12:33:58;3.60;;;2.00;;
3704;SDS011;1868;48.918;9.438;2024-01-27T12:36:28;2.60;;;1.90;;
3704;SDS011;1868;48.918;9.438;2024-01-27T12:38:58;3.80;;;2.03;;
3704;SDS011;1868;48.918;9.438;2024-01-27T12:41:30;2.80;;;1.60;;
3704;SDS011;1868;48.918;9.438;2024-01-27T12:44:00;2.17;;;1.83;;
3704;SDS011;1868;48.918;9.438;2024-01-27T12:46:31;5.20;;;2.43;;
3704;SDS011;1868;48.918;9.438;2024-01-27T12:49:00;6.40;;;2.23;;
3704;SDS011;1868;48.918;9.438;2024-01-27T12:51:31;3.60;;;1.67;;
3704;SDS011;1868;48.918;9.438;2024-01-27T12:54:04;4.07;;;2.03;;
3704;SDS011;1868;48.918;9.438;2024-01-27T12:56:35;7.77;;;2.30;;
3704;SDS011;1868;48.918;9.438;2024-01-27T12:59:04;4.93;;;2.50;;
3704;SDS011;1868;48.918;9.438;2024-01-27T13:01:37;3.07;;;1.70;;
3704;SDS011;1868;48.918;9.438;2024-01-27T13:04:05;4.23;;;2.43;;
3704;SDS011;1868;48.918;9.438;2024-01-27T13:06:35;4.30;;;2.20;;
3704;SDS011;1868;48.918;9.438;2024-01-27T13:09:04;4.67;;;2.03;;
3704;SDS011;1868;48.918;9.438;2024-01-27T13:11:34;5.30;;;2.40;;
3704;SDS011;1868;48.918;9.438;2024-01-27T13:14:04;5.60;;;2.00;;
3704;SDS011;1868;48.918;9.438;2024-01-27T13:16:33;6.23;;;2.53;;
3704;SDS011;1868;48.918;9.438;2024-01-27T13:19:05;5.17;;;2.27;;
3704;SDS011;1868;48.918;9.438;2024-01-27T13:21:35;3.93;;;1.80;;
3704;SDS011;1868;48.918;9.438;2024-01-27T13:24:04;3.70;;;2.20;;
3704;SDS011;1868;48.918;9.438;2024-01-27T13:26:37;5.97;;;2.10;;
3704;SDS011;1868;48.918;9.438;2024-01-27T13:29:06;4.63;;;2.07;;
3704;SDS011;1868;48.918;9.438;2024-01-27T13:31:36;3.47;;;1.63;;
3704;SDS011;1868;48.918;9.438;2024-01-27T13:34:06;6.63;;;2.67;;
3704;SDS011;1868;48.918;9.438;2024-01-27T13:36:38;6.67;;;2.70;;
3704;SDS011;1868;48.918;9.438;2024-01-27T13:39:07;3.90;;;2.07;;
3704;SDS011;1868;48.918;9.438;2024-01-27T13:41:36;7.70;;;2.57;;
3704;SDS011;1868;48.918;9.438;2024-01-27T13:44:06;9.80;;;2.60;;
3704;SDS011;1868;48.918;9.438;2024-01-27T13:46:35;4.93;;;2.67;;
3704;SDS011;1868;48.918;9.438;2024-01-27T13:49:03;6.60;;;2.40;;
3704;SDS011;1868;48.918;9.438;2024-01-27T13:51:33;4.57;;;2.40;;
3704;SDS011;1868;48.918;9.438;2024-01-27T13:54:02;3.30;;;2.20;;
3704;SDS011;1868;48.918;9.438;2024-01-27T13:56:36;4.50;;;2.13;;
3704;SDS011;1868;48.918;9.438;2024-01-27T13:59:05;8.30;;;2.93;;
3704;SDS011;1868;48.918;9.438;2024-01-27T14:01:36;5.43;;;2.40;;
3704;SDS011;1868;48.918;9.438;2024-01-27T14:04:08;5.70;;;3.33;;
3704;SDS011;1868;48.918;9.438;2024-01-27T14:06:37;6.27;;;3.00;;
3704;SDS011;1868;48.918;9.438;2024-01-27T14:09:08;7.07;;;2.23;;
3704;SDS011;1868;48.918;9.438;2024-01-27T14:11:40;5.63;;;2.50;;
3704;SDS011;1868;48.918;9.438;2024-01-27T14:14:11;5.37;;;2.77;;
3704;SDS011;1868;48.918;9.438;2024-01-27T14:16:40;13.07;;;2.93;;
3704;SDS011;1868;48.918;9.438;2024-01-27T14:19:15;10.70;;;2.67;;
3704;SDS011;1868;48.918;9.438;2024-01-27T14:21:45;4.93;;;2.60;;
3704;SDS011;1868;48.918;9.438;2024-01-27T14:24:15;4.43;;;2.13;;
3704;SDS011;1868;48.918;9.438;2024-01-27T14:26:44;5.70;;;2.70;;
3704;SDS011;1868;48.918;9.438;2024-01-27T14:29:13;5.40;;;3.17;;
3704;SDS011;1868;48.918;9.438;2024-01-27T14:31:44;4.57;;;2.00;;
3704;SDS011;1868;48.918;9.438;2024-01-27T14:34:15;3.63;;;2.10;;
3704;SDS011;1868;48.918;9.438;2024-01-27T14:36:43;4.07;;;2.10;;
3704;SDS011;1868;48.918;9.438;2024-01-27T14:39:15;5.90;;;2.33;;
3704;SDS011;1868;48.918;9.438;2024-01-27T14:41:44;6.27;;;2.23;;
3704;SDS011;1868;48.918;9.438;2024-01-27T14:44:12;4.37;;;2.30;;
3704;SDS011;1868;48.918;9.438;2024-01-27T14:46:41;3.47;;;2.33;;
3704;SDS011;1868;48.918;9.438;2024-01-27T14:49:10;8.30;;;3.17;;
3704;SDS011;1868;48.918;9.438;2024-01-27T14:51:40;8.40;;;2.97;;
3704;SDS011;1868;48.918;9.438;2024-01-27T14:54:08;7.23;;;3.37;;
3704;SDS011;1868;48.918;9.438;2024-01-27T14:56:37;7.97;;;3.40;;
3704;SDS011;1868;48.918;9.438;2024-01-27T14:59:05;6.93;;;3.00;;
3704;SDS011;1868;48.918;9.438;2024-01-27T15:01:35;6.77;;;2.60;;
3704;SDS011;1868;48.918;9.438;2024-01-27T15:04:03;5.47;;;1.90;;
3704;SDS011;1868;48.918;9.438;2024-01-27T15:06:33;8.57;;;3.70;;
3704;SDS011;1868;48.918;9.438;2024-01-27T15:09:03;9.10;;;4.13;;
3704;SDS011;1868;48.918;9.438;2024-01-27T15:11:32;10.63;;;4.83;;
3704;SDS011;1868;48.918;9.438;2024-01-27T15:14:01;6.87;;;3.20;;
3704;SDS011;1868;48.918;9.438;2024-01-27T15:16:29;4.73;;;2.10;;
3704;SDS011;1868;48.918;9.438;2024-01-27T15:19:01;7.30;;;2.60;;
3704;SDS011;1868;48.918;9.438;2024-01-27T15:21:29;5.57;;;2.23;;
3704;SDS011;1868;48.918;9.438;2024-01-27T15:23:58;9.90;;;3.43;;
3704;SDS011;1868;48.918;9.438;2024-01-27T15:26:28;5.70;;;2.47;;
3704;SDS011;1868;48.918;9.438;2024-01-27T15:28:58;7.70;;;2.60;;
3704;SDS011;1868;48.918;9.438;2024-01-27T15:31:26;7.00;;;2.50;;